createdAt,value
2022-10-18T00:00:46.241Z,32.60
2022-10-18T00:03:12.713Z,25.30
2022-10-18T00:05:39.304Z,34.10
2022-10-18T00:08:05.854Z,26.58
2022-10-18T00:10:32.365Z,28.75
2022-10-18T00:12:58.844Z,26.45
2022-10-18T00:15:25.491Z,23.17
2022-10-18T00:17:52.034Z,27.83
2022-10-18T00:20:18.530Z,29.00
2022-10-18T00:22:45.044Z,27.25
2022-10-18T00:25:11.798Z,26.05
2022-10-18T00:27:38.317Z,29.73
2022-10-18T00:30:05.515Z,31.30
2022-10-18T00:32:37.060Z,30.83
2022-10-18T00:35:04.314Z,28.45
2022-10-18T00:37:30.861Z,26.10
2022-10-18T00:39:57.348Z,27.48
2022-10-18T00:42:28.087Z,26.83
2022-10-18T00:45:17.953Z,29.52
2022-10-18T00:47:47.449Z,23.85
2022-10-18T00:50:14.130Z,26.08
2022-10-18T00:52:45.179Z,25.15
2022-10-18T00:55:11.878Z,26.73
2022-10-18T00:57:40.072Z,25.50
2022-10-18T01:00:09.766Z,28.70
2022-10-18T01:02:37.786Z,23.42
2022-10-18T01:05:05.033Z,25.48
2022-10-18T01:07:59.479Z,21.77
2022-10-18T01:10:32.916Z,25.58
2022-10-18T01:13:11.561Z,26.90
2022-10-18T01:15:50.029Z,23.63
2022-10-18T01:18:25.148Z,25.05
2022-10-18T01:21:16.582Z,22.52
2022-10-18T01:24:13.970Z,30.08
2022-10-18T01:27:29.084Z,23.65
2022-10-18T01:30:07.493Z,22.40
2022-10-18T01:32:44.360Z,26.00
2022-10-18T01:35:18.297Z,25.90
2022-10-18T01:37:46.569Z,26.00
2022-10-18T01:40:14.731Z,25.23
2022-10-18T01:42:42.162Z,23.95
2022-10-18T01:45:09.358Z,24.85
2022-10-18T01:47:36.219Z,25.15
2022-10-18T01:50:05.858Z,25.60
2022-10-18T01:52:32.754Z,25.25
2022-10-18T01:54:59.698Z,27.10
2022-10-18T01:57:37.660Z,24.30
2022-10-18T02:00:08.408Z,26.77
2022-10-18T02:02:46.461Z,25.13
2022-10-18T02:05:19.094Z,22.70
2022-10-18T02:08:22.901Z,26.02
2022-10-18T02:10:54.654Z,23.75
2022-10-18T02:13:22.653Z,27.42
2022-10-18T02:15:59.887Z,26.60
2022-10-18T02:18:35.368Z,24.65
2022-10-18T02:21:03.693Z,21.98
2022-10-18T02:23:30.998Z,23.98
2022-10-18T02:25:57.665Z,27.25
2022-10-18T02:31:19.550Z,24.90
2022-10-18T02:34:22.714Z,27.05
2022-10-18T02:36:57.746Z,23.83
2022-10-18T02:39:30.348Z,20.55
2022-10-18T02:41:58.204Z,22.00
2022-10-18T02:44:24.771Z,24.48
2022-10-18T02:46:51.287Z,24.52
2022-10-18T02:49:17.889Z,29.73
2022-10-18T02:51:44.381Z,25.85
2022-10-18T02:54:10.917Z,22.92
2022-10-18T02:56:37.391Z,22.88
2022-10-18T02:59:05.563Z,23.15
2022-10-18T03:01:32.998Z,23.45
2022-10-18T03:03:59.566Z,26.20
2022-10-18T03:06:26.069Z,20.90
2022-10-18T03:08:52.542Z,25.42
2022-10-18T03:11:19.056Z,21.30
2022-10-18T03:13:45.579Z,21.50
2022-10-18T03:16:12.570Z,23.65
2022-10-18T03:18:39.062Z,23.58
2022-10-18T03:21:06.823Z,24.75
2022-10-18T03:23:33.692Z,26.52
2022-10-18T03:26:00.460Z,27.70
2022-10-18T03:28:27.181Z,25.25
2022-10-18T03:30:53.713Z,26.58
2022-10-18T03:33:20.185Z,27.17
2022-10-18T03:35:46.662Z,22.67
2022-10-18T03:38:13.205Z,22.67
2022-10-18T03:40:39.673Z,18.30
2022-10-18T03:43:06.227Z,22.20
2022-10-18T03:45:32.672Z,30.65
2022-10-18T03:47:59.302Z,24.50
2022-10-18T03:50:25.774Z,21.25
2022-10-18T03:52:54.061Z,20.67
2022-10-18T03:55:20.577Z,21.95
2022-10-18T03:57:47.090Z,20.15
2022-10-18T04:00:14.373Z,29.35
2022-10-18T04:02:40.867Z,26.75
2022-10-18T04:05:07.687Z,24.73
2022-10-18T04:10:06.842Z,21.67
2022-10-18T04:12:33.817Z,26.27
2022-10-18T04:15:00.427Z,21.90
2022-10-18T04:17:26.973Z,24.52
2022-10-18T04:19:53.509Z,22.02
2022-10-18T04:22:20.153Z,22.27
2022-10-18T04:24:46.608Z,19.27
2022-10-18T04:27:13.089Z,20.42
2022-10-18T04:29:39.685Z,24.50
2022-10-18T04:32:06.296Z,24.00
2022-10-18T04:34:32.849Z,25.13
2022-10-18T04:36:59.421Z,27.02
2022-10-18T04:39:25.986Z,25.40
2022-10-18T04:41:52.493Z,21.63
2022-10-18T04:44:18.965Z,23.10
2022-10-18T04:46:45.423Z,26.25
2022-10-18T04:49:11.955Z,24.58
2022-10-18T04:51:38.478Z,28.90
2022-10-18T04:54:04.970Z,21.27
2022-10-18T04:56:31.819Z,23.90
2022-10-18T04:58:59.413Z,22.85
2022-10-18T05:01:25.981Z,21.67
2022-10-18T05:03:56.906Z,24.33
2022-10-18T05:06:23.454Z,19.63
2022-10-18T05:08:49.925Z,24.10
2022-10-18T05:11:16.481Z,23.95
2022-10-18T05:13:44.999Z,22.25
2022-10-18T05:16:13.793Z,21.88
2022-10-18T05:18:40.284Z,18.42
2022-10-18T05:21:06.743Z,21.80
2022-10-18T05:23:33.252Z,23.27
2022-10-18T05:26:04.426Z,25.63
2022-10-18T05:28:39.292Z,28.58
2022-10-18T05:31:08.254Z,19.20
2022-10-18T05:33:34.801Z,21.90
2022-10-18T05:36:01.411Z,25.02
2022-10-18T05:38:30.834Z,23.05
2022-10-18T05:40:58.480Z,19.45
2022-10-18T05:43:28.502Z,17.95
2022-10-18T05:45:55.022Z,22.10
2022-10-18T05:48:21.620Z,20.40
2022-10-18T05:50:48.080Z,22.15
2022-10-18T05:53:35.345Z,26.20
2022-10-18T05:56:01.614Z,23.77
2022-10-18T05:58:28.218Z,22.13
2022-10-18T06:00:54.736Z,21.95
2022-10-18T06:03:21.236Z,24.75
2022-10-18T06:05:47.755Z,20.45
2022-10-18T06:08:14.327Z,25.55
2022-10-18T06:10:40.869Z,22.00
2022-10-18T06:13:07.418Z,23.00
2022-10-18T06:15:33.946Z,22.27
2022-10-18T06:18:00.434Z,22.25
2022-10-18T06:20:26.929Z,22.83
2022-10-18T06:22:53.679Z,24.90
2022-10-18T06:25:20.202Z,20.17
2022-10-18T06:27:46.705Z,22.25
2022-10-18T06:30:13.261Z,21.08
2022-10-18T06:32:39.749Z,20.55
2022-10-18T06:35:06.752Z,18.95
2022-10-18T06:37:35.503Z,27.15
2022-10-18T06:40:02.397Z,25.63
2022-10-18T06:42:28.884Z,22.00
2022-10-18T06:44:55.345Z,21.55
2022-10-18T06:47:21.856Z,25.17
2022-10-18T06:49:48.391Z,22.55
2022-10-18T06:52:17.650Z,22.92
2022-10-18T06:54:45.439Z,21.50
2022-10-18T06:57:12.075Z,21.55
2022-10-18T06:59:38.552Z,24.10
2022-10-18T07:02:05.147Z,22.50
2022-10-18T07:04:31.657Z,26.98
2022-10-18T07:06:58.225Z,25.00
2022-10-18T07:09:24.696Z,23.83
2022-10-18T07:11:52.792Z,21.40
2022-10-18T07:14:19.274Z,28.30
2022-10-18T07:16:45.848Z,23.77
2022-10-18T07:19:12.460Z,21.67
2022-10-18T07:21:38.951Z,23.02
2022-10-18T07:24:05.701Z,18.02
2022-10-18T07:26:34.627Z,21.80
2022-10-18T07:29:09.843Z,20.65
2022-10-18T07:31:38.444Z,25.77
2022-10-18T07:36:31.955Z,21.55
2022-10-18T07:38:59.585Z,20.65
2022-10-18T07:41:26.200Z,22.77
2022-10-18T07:43:53.301Z,20.45
2022-10-18T07:46:21.350Z,20.15
2022-10-18T07:48:48.033Z,21.02
2022-10-18T07:51:14.926Z,19.05
2022-10-18T07:53:41.398Z,20.92
2022-10-18T07:56:15.637Z,21.42
2022-10-18T07:58:43.364Z,25.08
2022-10-18T08:01:10.258Z,20.40
2022-10-18T08:03:37.454Z,19.83
2022-10-18T08:06:05.066Z,24.88
2022-10-18T08:08:31.703Z,22.80
2022-10-18T08:11:14.718Z,21.05
2022-10-18T08:13:41.389Z,22.90
2022-10-18T08:16:11.265Z,20.33
2022-10-18T08:18:38.214Z,23.00
2022-10-18T08:21:06.840Z,18.40
2022-10-18T08:23:34.134Z,102.60
2022-10-18T08:26:02.346Z,58.55
2022-10-18T08:30:55.668Z,39.30
2022-10-18T08:33:22.702Z,51.92
2022-10-18T08:36:00.609Z,37.80
2022-10-18T08:38:30.104Z,29.13
2022-10-18T08:40:58.329Z,35.35
2022-10-18T08:43:38.854Z,46.15
2022-10-18T08:46:05.369Z,36.22
2022-10-18T08:48:44.219Z,34.13
2022-10-18T08:51:28.298Z,47.03
2022-10-18T08:54:03.060Z,33.53
2022-10-18T08:58:56.000Z,36.75
2022-10-18T09:02:03.078Z,37.15
2022-10-18T09:05:08.459Z,27.38
2022-10-18T09:07:43.851Z,31.98
2022-10-18T09:10:33.374Z,29.27
2022-10-18T09:13:24.526Z,25.63
2022-10-18T09:15:58.946Z,29.98
2022-10-18T09:18:44.155Z,25.20
2022-10-18T09:21:45.883Z,24.08
2022-10-18T09:24:31.949Z,25.17
2022-10-18T09:27:04.997Z,23.92
2022-10-18T09:29:45.003Z,25.02
2022-10-18T09:32:26.541Z,30.33
2022-10-18T09:34:56.014Z,24.52
2022-10-18T09:37:24.254Z,22.45
2022-10-18T09:39:52.083Z,26.42
2022-10-18T09:42:28.693Z,18.83
2022-10-18T09:45:03.228Z,23.95
2022-10-18T09:47:36.265Z,20.70
2022-10-18T09:50:14.924Z,19.40
2022-10-18T09:52:46.127Z,19.02
2022-10-18T09:55:19.722Z,23.75
2022-10-18T09:57:50.655Z,26.42
2022-10-18T10:00:23.029Z,22.67
2022-10-18T10:02:49.577Z,18.60
2022-10-18T10:05:16.191Z,23.05
2022-10-18T10:07:44.871Z,20.42
2022-10-18T10:10:20.667Z,28.05
2022-10-18T10:12:47.954Z,22.52
2022-10-18T10:15:29.559Z,23.60
2022-10-18T10:18:05.600Z,29.77
2022-10-18T10:20:52.789Z,25.85
2022-10-18T10:23:22.387Z,30.30
2022-10-18T10:25:57.186Z,25.13
2022-10-18T10:30:50.820Z,32.15
2022-10-18T10:33:38.996Z,33.45
2022-10-18T10:36:16.657Z,29.60
2022-10-18T10:38:43.397Z,33.58
2022-10-18T10:41:21.179Z,32.60
2022-10-18T10:43:48.231Z,32.97
2022-10-18T10:46:19.394Z,30.75
2022-10-18T10:48:47.865Z,40.15
2022-10-18T10:51:17.385Z,33.58
2022-10-18T10:53:51.305Z,41.03
2022-10-18T10:56:32.457Z,33.88
2022-10-18T11:01:41.987Z,41.15
2022-10-18T11:04:26.528Z,44.25
2022-10-18T11:07:20.954Z,40.05
2022-10-18T11:09:58.293Z,40.05
2022-10-18T11:12:29.651Z,36.28
2022-10-18T11:15:03.011Z,40.67
2022-10-18T11:20:50.586Z,35.42
2022-10-18T11:23:18.350Z,41.38
2022-10-18T11:26:21.030Z,36.30
2022-10-18T11:29:19.238Z,41.03
2022-10-18T11:32:01.197Z,42.20
2022-10-18T11:35:08.138Z,37.75
2022-10-18T11:37:38.695Z,44.90
2022-10-18T11:40:40.612Z,38.85
2022-10-18T11:43:07.078Z,37.90
2022-10-18T11:45:57.778Z,37.25
2022-10-18T11:48:56.861Z,36.38
2022-10-18T11:51:38.752Z,37.55
2022-10-18T11:54:35.055Z,35.88
2022-10-18T11:57:19.889Z,31.75
2022-10-18T12:00:07.221Z,35.70
2022-10-18T12:02:49.008Z,39.00
2022-10-18T12:05:23.738Z,38.00
2022-10-18T12:08:09.149Z,36.50
2022-10-18T12:10:59.958Z,32.13
2022-10-18T12:13:53.067Z,30.02
2022-10-18T12:16:38.879Z,38.15
2022-10-18T12:19:22.004Z,32.72
2022-10-18T12:21:52.276Z,34.25
2022-10-18T12:24:22.080Z,40.55
2022-10-18T12:26:51.392Z,36.53
2022-10-18T12:29:30.466Z,33.33
2022-10-18T12:32:08.587Z,32.67
2022-10-18T12:34:51.573Z,32.22
2022-10-18T12:37:31.716Z,32.58
2022-10-18T12:40:13.486Z,28.00
2022-10-18T12:42:47.087Z,29.08
2022-10-18T12:45:13.500Z,30.48
2022-10-18T12:47:40.365Z,29.75
2022-10-18T12:50:23.185Z,31.42
2022-10-18T12:53:03.609Z,27.70
2022-10-18T12:55:32.721Z,27.27
2022-10-18T12:57:59.276Z,25.55
2022-10-18T13:00:31.779Z,26.27
2022-10-18T13:03:11.445Z,27.02
2022-10-18T13:05:55.607Z,26.10
2022-10-18T13:08:33.895Z,25.58
2022-10-18T13:11:12.486Z,24.98
2022-10-18T13:13:46.493Z,24.20
2022-10-18T13:16:27.035Z,24.10
2022-10-18T13:18:57.112Z,27.00
2022-10-18T13:21:32.296Z,26.08
2022-10-18T13:24:01.657Z,22.48
2022-10-18T13:26:44.696Z,19.90
2022-10-18T15:56:44.949Z,14.27
2022-10-18T16:01:48.394Z,15.68
2022-10-18T16:04:25.518Z,15.60
2022-10-18T16:06:52.790Z,16.02
2022-10-18T16:09:20.706Z,15.65
2022-10-18T16:14:13.894Z,15.98
2022-10-18T16:16:40.413Z,16.27
2022-10-18T16:19:07.959Z,18.70
2022-10-18T16:21:37.514Z,14.65
2022-10-18T16:24:04.777Z,15.82
2022-10-18T16:26:31.787Z,18.50
2022-10-18T16:28:58.920Z,15.85
2022-10-18T16:31:27.668Z,15.18
2022-10-18T16:33:55.239Z,15.45
2022-10-18T16:36:27.331Z,19.70
2022-10-18T16:38:55.017Z,16.67
2022-10-18T16:41:21.653Z,20.33
2022-10-18T16:43:49.650Z,17.23
2022-10-18T16:46:21.274Z,15.10
2022-10-18T16:48:49.091Z,12.95
2022-10-18T16:51:16.094Z,17.25
2022-10-18T16:53:43.082Z,20.17
2022-10-18T16:56:21.399Z,13.27
2022-10-18T16:58:48.598Z,17.48
2022-10-18T17:01:17.216Z,17.20
2022-10-18T17:03:44.387Z,19.27
2022-10-18T17:06:31.033Z,18.75
2022-10-18T17:08:58.014Z,18.95
2022-10-18T17:11:26.566Z,20.30
2022-10-18T17:13:53.490Z,20.08
2022-10-18T17:19:01.414Z,19.63
2022-10-18T17:21:28.968Z,19.15
2022-10-18T17:23:55.545Z,21.50
2022-10-18T17:26:28.773Z,24.35
2022-10-18T17:28:58.465Z,20.05
2022-10-18T17:31:25.089Z,21.85
2022-10-18T17:33:54.397Z,19.80
2022-10-18T17:36:21.814Z,21.52
2022-10-18T17:38:54.925Z,19.65
2022-10-18T17:41:21.527Z,25.08
2022-10-18T17:43:48.549Z,20.52
2022-10-18T17:46:16.279Z,18.25
2022-10-18T17:48:42.830Z,20.25
2022-10-18T17:51:10.998Z,23.48
2022-10-18T17:56:04.813Z,21.38
2022-10-18T17:58:31.840Z,21.15
2022-10-18T18:01:07.609Z,21.80
2022-10-18T18:03:34.180Z,20.95
2022-10-18T18:06:00.742Z,19.40
2022-10-18T18:08:27.308Z,23.88
2022-10-18T18:10:55.307Z,21.58
2022-10-18T18:13:21.825Z,24.60
2022-10-18T18:15:48.365Z,23.10
2022-10-18T18:18:14.842Z,23.48
2022-10-18T18:20:41.385Z,27.92
2022-10-18T18:23:07.866Z,22.67
2022-10-18T18:25:34.441Z,26.70
2022-10-18T18:28:05.259Z,26.88
2022-10-18T18:30:34.018Z,23.85
2022-10-18T18:33:00.518Z,19.38
2022-10-18T18:35:27.018Z,24.00
2022-10-18T18:37:53.545Z,28.15
2022-10-18T18:40:20.595Z,24.20
2022-10-18T18:43:01.624Z,21.77
2022-10-18T18:45:33.562Z,21.33
2022-10-18T18:48:00.049Z,24.67
2022-10-18T18:50:26.575Z,27.40
2022-10-18T18:52:53.097Z,21.17
2022-10-18T18:55:19.614Z,23.30
2022-10-18T18:57:46.092Z,26.55
2022-10-18T19:00:13.450Z,26.30
2022-10-18T19:02:39.937Z,25.08
2022-10-18T19:05:06.706Z,25.48
2022-10-18T19:07:35.325Z,31.08
2022-10-18T19:10:02.134Z,23.48
2022-10-18T19:12:28.613Z,27.17
2022-10-18T19:14:55.145Z,26.02
2022-10-18T19:17:22.465Z,26.58
2022-10-18T19:19:48.998Z,24.83
2022-10-18T19:22:15.498Z,23.33
2022-10-18T19:24:42.015Z,24.20
2022-10-18T19:27:12.231Z,22.88
2022-10-18T19:29:40.422Z,27.23
2022-10-18T19:32:11.848Z,29.25
2022-10-18T19:34:39.107Z,27.50
2022-10-18T19:37:05.594Z,27.27
2022-10-18T19:39:34.410Z,24.48
2022-10-18T19:42:04.320Z,25.88
2022-10-18T19:44:32.518Z,26.00
2022-10-18T19:46:59.190Z,26.90
2022-10-18T19:49:26.170Z,26.02
2022-10-18T19:51:52.777Z,24.20
2022-10-18T19:54:19.385Z,27.83
2022-10-18T19:56:45.945Z,25.90
2022-10-18T19:59:13.642Z,23.52
2022-10-18T20:01:40.282Z,26.83
2022-10-18T20:04:08.308Z,26.42
2022-10-18T20:06:35.573Z,22.83
2022-10-18T20:09:02.349Z,25.00
2022-10-18T20:11:29.930Z,23.50
2022-10-18T20:13:56.922Z,25.60
2022-10-18T20:16:28.354Z,29.52
2022-10-18T20:18:59.712Z,29.73
2022-10-18T20:21:26.985Z,24.10
2022-10-18T20:23:53.754Z,24.55
2022-10-18T20:26:20.972Z,28.77
2022-10-18T20:28:49.040Z,30.55
2022-10-18T20:31:19.234Z,26.27
2022-10-18T20:33:47.074Z,26.25
2022-10-18T20:36:17.976Z,29.88
2022-10-18T20:38:46.594Z,25.73
2022-10-18T20:41:18.674Z,29.60
2022-10-18T20:43:49.851Z,27.75
2022-10-18T20:46:16.333Z,26.52
2022-10-18T20:48:42.834Z,28.90
2022-10-18T20:51:12.599Z,25.15
2022-10-18T20:53:39.732Z,25.55
2022-10-18T20:56:08.651Z,22.35
2022-10-18T20:58:35.774Z,23.15
2022-10-18T21:01:09.836Z,29.65
2022-10-18T21:03:38.161Z,25.83
2022-10-18T21:06:11.996Z,23.98
2022-10-18T21:08:38.871Z,23.50
2022-10-18T21:11:05.786Z,27.98
2022-10-18T21:13:32.837Z,25.15
2022-10-18T21:16:00.094Z,27.50
2022-10-18T21:18:28.650Z,26.23
2022-10-18T21:20:55.216Z,26.70
2022-10-18T21:23:22.335Z,25.15
2022-10-18T21:25:49.515Z,26.77
2022-10-18T21:28:16.845Z,23.48
2022-10-18T21:30:43.451Z,27.33
2022-10-18T21:33:10.970Z,26.20
2022-10-18T21:35:38.053Z,23.60
2022-10-18T21:38:05.172Z,29.92
2022-10-18T21:40:32.376Z,22.73
2022-10-18T21:42:58.894Z,27.08
2022-10-18T21:45:25.376Z,32.83
2022-10-18T21:47:51.852Z,28.23
2022-10-18T21:50:18.349Z,27.55
2022-10-18T21:52:44.869Z,27.45
2022-10-18T21:55:11.965Z,30.33
2022-10-18T21:57:38.467Z,35.38
2022-10-18T22:00:06.040Z,26.58
2022-10-18T22:05:00.363Z,26.15
2022-10-18T22:07:26.907Z,33.03
2022-10-18T22:09:53.403Z,23.33
2022-10-18T22:12:19.910Z,27.92
2022-10-18T22:14:46.499Z,25.20
2022-10-18T22:17:12.985Z,23.80
2022-10-18T22:19:39.652Z,32.45
2022-10-18T22:22:06.130Z,28.48
2022-10-18T22:24:32.662Z,29.55
2022-10-18T22:26:59.214Z,31.42
2022-10-18T22:29:25.684Z,30.98
2022-10-18T22:31:53.773Z,25.73
2022-10-18T22:34:23.039Z,29.65
2022-10-18T22:36:49.563Z,26.88
2022-10-18T22:39:16.803Z,30.85
2022-10-18T22:41:43.521Z,24.70
2022-10-18T22:44:14.566Z,24.20
2022-10-18T22:46:41.845Z,29.45
2022-10-18T22:49:08.626Z,31.17
2022-10-18T22:54:06.570Z,27.02
2022-10-18T22:56:33.077Z,27.88
2022-10-18T22:58:59.702Z,30.60
2022-10-18T23:01:26.253Z,26.27
2022-10-18T23:03:57.578Z,25.58
2022-10-18T23:06:27.808Z,28.83
2022-10-18T23:08:56.633Z,24.45
2022-10-18T23:11:24.892Z,28.13
2022-10-18T23:13:51.584Z,26.58
2022-10-18T23:16:18.765Z,29.02
2022-10-18T23:18:52.243Z,23.63
2022-10-18T23:21:19.773Z,24.42
2022-10-18T23:23:46.705Z,26.50
2022-10-18T23:26:15.222Z,27.35
2022-10-18T23:28:44.102Z,27.20
2022-10-18T23:31:12.061Z,24.65
2022-10-18T23:33:39.290Z,22.17
2022-10-18T23:36:07.000Z,23.98
2022-10-18T23:38:34.452Z,28.95
2022-10-18T23:41:00.929Z,31.02
2022-10-18T23:43:27.555Z,30.52
2022-10-18T23:45:54.063Z,28.15
2022-10-18T23:48:20.558Z,26.48
2022-10-18T23:50:47.079Z,26.63
2022-10-18T23:53:13.611Z,27.48
2022-10-18T23:55:40.232Z,23.77
2022-10-18T23:58:06.706Z,28.65
